Terminal Aerodrome Forecast
Issued by NWS Mt. Holly, NJ

Home | Current Version | Previous Version | Text Only | Print | Product List | Glossary On
Versions: 1 2 3 4 5 6 7 8 9 10 11 12 13 14 15 16 17
089
FTUS41 KPHI 242056 AAA
TAFRDG
TAF AMD
KRDG 242056Z 2421/2518 19012KT P6SM FEW200
     FM242300 17006KT P6SM SCT200
     FM250700 15004KT 2SM BR OVC008
     FM251500 17010KT 5SM BR BKN015=

USA.gov is the U.S. government's official web portal to all federal, state and local government web resources and services.